This is the latest recevied weather packets stored in our database for station/object SR9SMR. If no packets are shown the sender has not sent any weather packets the latest 1 day(s).
| Time | Temp. | Humidity | Pressure | Rain* | Wind** | Luminosity | Snow |
|---|---|---|---|---|---|---|---|
| 1777998911 | 17.78° C | 100% | 894.9 hPa | - | 7.6 m/s, 238° | - | - |
| 1777998852 | 17.78° C | 100% | 894.9 hPa | - | 8.05 m/s, 245° | - | - |
| 1777998788 | 17.78° C | 100% | 894.7 hPa | - | 8.05 m/s, 244° | - | - |
| 1777998666 | 17.78° C | 100% | 894.3 hPa | - | 9.39 m/s, 238° | - | - |
| 1777998545 | 17.78° C | 100% | 894.7 hPa | - | 8.94 m/s, 234° | - | - |
| 1777998423 | 18.33° C | 100% | 894.9 hPa | - | 8.05 m/s, 235° | - | - |
| 1777998302 | 18.33° C | 100% | 895.1 hPa | - | 8.05 m/s, 237° | - | - |
| 1777998242 | 18.33° C | 100% | 895.2 hPa | - | 8.05 m/s, 233° | - | - |
| 1777998132 | 17.78° C | 100% | 895.4 hPa | - | 7.15 m/s, 222° | - | - |
| 1777998070 | 17.78° C | 100% | 895.4 hPa | - | 7.15 m/s, 209° | - | - |
| 1777997936 | 17.78° C | 100% | 894.9 hPa | - | 8.05 m/s, 201° | - | - |
| 1777997811 | 17.78° C | 100% | 894.6 hPa | - | 8.94 m/s, 206° | - | - |
| 1777997750 | 17.78° C | 100% | 894.6 hPa | - | 8.49 m/s, 211° | - | - |
| 1777997687 | 17.78° C | 100% | 894.6 hPa | - | 8.94 m/s, 224° | - | - |
| 1777997563 | 17.78° C | 100% | 894.6 hPa | - | 8.05 m/s, 225° | - | - |
| 1777997440 | 17.78° C | 100% | 894.8 hPa | - | 8.05 m/s, 218° | - | - |
| 1777997316 | 17.78° C | 100% | 894.7 hPa | - | 8.49 m/s, 228° | - | - |
| 1777997192 | 17.78° C | 100% | 894.6 hPa | - | 8.49 m/s, 229° | - | - |
| 1777997133 | 17.78° C | 100% | 894.6 hPa | - | 8.49 m/s, 228° | - | - |
| 1777997071 | 17.78° C | 100% | 894.7 hPa | - | 8.49 m/s, 226° | - | - |
| 1777997018 | 17.78° C | 100% | 894.6 hPa | - | 8.94 m/s, 219° | - | - |
| 1777996949 | 17.78° C | 100% | 894.6 hPa | - | 9.83 m/s, 219° | - | - |
| 1777996895 | 17.78° C | 100% | 894.4 hPa | - | 10.73 m/s, 221° | - | - |
| 1777996828 | 17.78° C | 100% | 894.2 hPa | - | 10.73 m/s, 223° | - | - |
| 1777996776 | 17.78° C | 100% | 894.4 hPa | - | 10.73 m/s, 228° | - | - |
* Rain since midnight (hover to see other rain measurements)
** Current wind speed in m/s (hover to see current wind gust speed)